Time,TemperatureF,DewpointF,PressureIn,WindDirection,WindDirectionDegrees,WindSpeedMPH,WindSpeedGustMPH,Humidity,HourlyPrecipIn,Conditions,Clouds,dailyrainin,SoftwareType,DateUTC
2013-11-08 00:02:00,29.3,29.1,30.21,West,271,0.0,0.0,99,0.00,FEW,,0.00,WeatherDisplay:10.37,2013-11-08 06:02:00,
2013-11-08 00:07:00,29.0,28.8,30.21,West,271,0.0,0.0,99,0.00,FEW,,0.00,WeatherDisplay:10.37,2013-11-08 06:07:00,
2013-11-08 00:12:00,28.9,28.7,30.21,West,271,0.0,0.0,99,0.00,FEW,,0.00,WeatherDisplay:10.37,2013-11-08 06:12:00,
2013-11-08 00:17:00,29.0,29.0,30.21,West,271,0.0,0.0,100,0.00,FEW,,0.00,WeatherDisplay:10.37,2013-11-08 06:17:00,
2013-11-08 00:22:00,28.7,28.7,30.21,West,271,0.0,0.0,100,0.00,FEW,,0.00,WeatherDisplay:10.37,2013-11-08 06:22:00,
2013-11-08 00:27:00,28.7,28.7,30.21,West,271,0.0,0.0,100,0.00,FEW,,0.00,WeatherDisplay:10.37,2013-11-08 06:27:00,
2013-11-08 00:32:00,28.8,28.8,30.21,West,271,0.0,0.0,100,0.00,FEW,,0.00,WeatherDisplay:10.37,2013-11-08 06:32:00,
2013-11-08 00:37:00,28.8,28.8,30.21,West,271,0.0,0.0,100,0.00,FEW,,0.00,WeatherDisplay:10.37,2013-11-08 06:37:00,
2013-11-08 00:42:00,29.0,29.0,30.21,WNW,292,0.9,1.6,100,0.00,FEW,,0.00,WeatherDisplay:10.37,2013-11-08 06:42:00,
2013-11-08 00:47:00,29.0,29.0,30.21,WNW,284,0.0,0.0,100,0.00,FEW,,0.00,WeatherDisplay:10.37,2013-11-08 06:47:00,
2013-11-08 00:52:00,28.5,28.5,30.21,WNW,284,0.0,0.0,100,0.00,FEW,,0.00,WeatherDisplay:10.37,2013-11-08 06:52:00,
2013-11-08 00:57:00,28.6,28.6,30.21,WNW,284,0.0,0.0,100,0.00,FEW,,0.00,WeatherDisplay:10.37,2013-11-08 06:57:00,
2013-11-08 01:02:00,28.5,28.5,30.21,WSW,252,0.3,1.2,100,0.00,CLR,,0.00,WeatherDisplay:10.37,2013-11-08 07:02:00,
2013-11-08 01:07:00,29.0,29.0,30.22,SW,216,0.0,1.2,100,0.00,CLR,,0.00,WeatherDisplay:10.37,2013-11-08 07:07:00,
2013-11-08 01:12:00,28.8,28.8,30.21,SW,216,0.0,0.0,100,0.00,CLR,,0.00,WeatherDisplay:10.37,2013-11-08 07:12:00,
2013-11-08 01:17:00,28.9,28.9,30.22,SW,216,0.0,0.0,100,0.00,CLR,,0.00,WeatherDisplay:10.37,2013-11-08 07:17:00,
2013-11-08 01:22:00,28.8,28.8,30.21,SW,216,0.0,0.0,100,0.00,CLR,,0.00,WeatherDisplay:10.37,2013-11-08 07:22:00,
2013-11-08 01:27:00,28.5,28.5,30.22,SW,216,0.0,0.0,100,0.00,CLR,,0.00,WeatherDisplay:10.37,2013-11-08 07:27:00,
2013-11-08 01:32:00,28.4,28.4,30.21,SW,216,0.0,0.0,100,0.00,CLR,,0.00,WeatherDisplay:10.37,2013-11-08 07:32:00,
2013-11-08 01:37:00,28.1,28.1,30.22,SW,216,0.0,0.0,100,0.00,CLR,,0.00,WeatherDisplay:10.37,2013-11-08 07:37:00,
2013-11-08 01:42:00,28.1,28.1,30.22,SW,216,0.0,0.0,100,0.00,CLR,,0.00,WeatherDisplay:10.37,2013-11-08 07:42:00,
2013-11-08 01:47:00,28.0,28.0,30.22,SW,216,0.0,0.0,100,0.00,CLR,,0.00,WeatherDisplay:10.37,2013-11-08 07:47:00,
2013-11-08 01:52:00,28.1,28.1,30.22,SW,216,0.0,0.0,100,0.00,CLR,,0.00,WeatherDisplay:10.37,2013-11-08 07:52:00,
2013-11-08 01:57:00,28.3,28.3,30.22,SW,216,0.0,0.0,100,0.00,CLR,,0.00,WeatherDisplay:10.37,2013-11-08 07:57:00,
2013-11-08 02:02:00,28.2,28.2,30.22,SW,216,0.0,0.0,100,0.00,CLR,,0.00,WeatherDisplay:10.37,2013-11-08 08:02:00,
2013-11-08 02:07:00,28.2,28.2,30.21,SW,216,0.0,0.0,100,0.00,CLR,,0.00,WeatherDisplay:10.37,2013-11-08 08:07:00,
2013-11-08 02:12:00,28.3,28.3,30.21,SW,216,0.0,0.0,100,0.00,CLR,,0.00,WeatherDisplay:10.37,2013-11-08 08:12:00,
2013-11-08 02:17:00,27.9,27.9,30.21,SW,216,0.0,0.0,100,0.00,CLR,,0.00,WeatherDisplay:10.37,2013-11-08 08:17:00,
2013-11-08 02:22:00,27.2,27.2,30.21,SW,216,0.0,0.0,100,0.00,CLR,,0.00,WeatherDisplay:10.37,2013-11-08 08:22:00,
2013-11-08 02:27:00,27.2,27.2,30.21,SW,216,0.0,0.0,100,0.00,CLR,,0.00,WeatherDisplay:10.37,2013-11-08 08:27:00,
2013-11-08 02:32:00,27.5,27.5,30.21,SW,216,0.0,0.0,100,0.00,CLR,,0.00,WeatherDisplay:10.37,2013-11-08 08:32:00,
2013-11-08 02:37:00,27.7,27.7,30.21,SW,216,0.0,0.0,100,0.00,CLR,,0.00,WeatherDisplay:10.37,2013-11-08 08:37:00,
2013-11-08 02:42:00,27.7,27.7,30.21,SW,216,0.0,0.0,100,0.00,CLR,,0.00,WeatherDisplay:10.37,2013-11-08 08:42:00,
2013-11-08 02:47:00,28.0,28.0,30.21,SW,216,0.0,0.0,100,0.00,CLR,,0.00,WeatherDisplay:10.37,2013-11-08 08:47:00,
2013-11-08 02:52:00,27.8,27.8,30.22,SW,216,0.0,0.0,100,0.00,CLR,,0.00,WeatherDisplay:10.37,2013-11-08 08:52:00,
2013-11-08 02:57:00,27.7,27.7,30.21,SW,216,0.0,0.0,100,0.00,CLR,,0.00,WeatherDisplay:10.37,2013-11-08 08:57:00,
2013-11-08 03:02:00,27.6,27.6,30.22,SW,216,0.0,0.0,100,0.00,CLR,,0.00,WeatherDisplay:10.37,2013-11-08 09:02:00,
2013-11-08 03:07:00,27.6,27.6,30.22,SW,216,0.0,0.0,100,0.00,CLR,,0.00,WeatherDisplay:10.37,2013-11-08 09:07:00,
2013-11-08 03:12:00,27.6,27.6,30.22,SW,216,0.0,0.0,100,0.00,CLR,,0.00,WeatherDisplay:10.37,2013-11-08 09:12:00,
2013-11-08 03:17:00,27.4,27.4,30.22,SW,216,0.0,0.0,100,0.00,CLR,,0.00,WeatherDisplay:10.37,2013-11-08 09:17:00,
2013-11-08 03:22:00,27.3,27.3,30.22,SW,216,0.0,0.0,100,0.00,CLR,,0.00,WeatherDisplay:10.37,2013-11-08 09:22:00,
2013-11-08 03:27:00,27.1,27.1,30.22,SW,216,0.0,0.0,100,0.00,CLR,,0.00,WeatherDisplay:10.37,2013-11-08 09:27:00,
2013-11-08 03:32:00,26.9,26.9,30.22,SW,216,0.0,0.0,100,0.00,CLR,,0.00,WeatherDisplay:10.37,2013-11-08 09:32:00,
2013-11-08 03:37:00,26.9,26.9,30.22,SW,216,0.0,0.0,100,0.00,CLR,,0.00,WeatherDisplay:10.37,2013-11-08 09:37:00,
2013-11-08 03:42:00,26.7,26.7,30.22,SW,216,0.0,0.0,100,0.00,CLR,,0.00,WeatherDisplay:10.37,2013-11-08 09:42:00,
2013-11-08 03:47:00,26.7,26.7,30.22,SW,216,0.0,0.0,100,0.00,CLR,,0.00,WeatherDisplay:10.37,2013-11-08 09:47:00,
2013-11-08 03:52:00,26.8,26.8,30.23,SW,216,0.0,0.0,100,0.00,CLR,,0.00,WeatherDisplay:10.37,2013-11-08 09:52:00,
2013-11-08 03:57:00,26.9,26.9,30.23,SW,216,0.0,0.0,100,0.00,CLR,,0.00,WeatherDisplay:10.37,2013-11-08 09:57:00,
2013-11-08 04:02:00,27.2,27.2,30.23,SW,216,0.0,0.0,100,0.00,CLR,,0.00,WeatherDisplay:10.37,2013-11-08 10:02:00,
2013-11-08 04:07:00,27.1,27.1,30.22,SW,216,0.0,0.0,100,0.00,CLR,,0.00,WeatherDisplay:10.37,2013-11-08 10:07:00,
2013-11-08 04:12:00,27.2,27.2,30.22,SW,216,0.0,0.0,100,0.00,CLR,,0.00,WeatherDisplay:10.37,2013-11-08 10:12:00,
2013-11-08 04:17:00,26.9,26.9,30.22,SW,216,0.0,0.0,100,0.00,CLR,,0.00,WeatherDisplay:10.37,2013-11-08 10:17:00,
2013-11-08 04:22:00,26.5,26.5,30.22,SW,216,0.0,0.0,100,0.00,CLR,,0.00,WeatherDisplay:10.37,2013-11-08 10:22:00,
2013-11-08 04:27:00,26.3,26.3,30.22,SW,216,0.0,0.0,100,0.00,CLR,,0.00,WeatherDisplay:10.37,2013-11-08 10:27:00,
2013-11-08 04:32:00,25.9,25.9,30.23,SW,216,0.0,0.0,100,0.00,CLR,,0.00,WeatherDisplay:10.37,2013-11-08 10:32:00,
2013-11-08 04:37:00,26.5,26.5,30.23,WSW,243,0.0,1.2,100,0.00,CLR,,0.00,WeatherDisplay:10.37,2013-11-08 10:37:00,
2013-11-08 04:42:00,27.1,27.1,30.22,WSW,243,0.0,0.0,100,0.00,CLR,,0.00,WeatherDisplay:10.37,2013-11-08 10:42:00,
2013-11-08 04:47:00,27.1,27.1,30.22,WSW,243,0.0,0.0,100,0.00,CLR,,0.00,WeatherDisplay:10.37,2013-11-08 10:47:00,
2013-11-08 04:52:00,26.9,26.9,30.22,WSW,243,0.0,0.0,100,0.00,CLR,,0.00,WeatherDisplay:10.37,2013-11-08 10:52:00,
2013-11-08 04:57:00,26.3,26.3,30.22,WSW,243,0.0,0.0,100,0.00,CLR,,0.00,WeatherDisplay:10.37,2013-11-08 10:57:00,
2013-11-08 05:02:00,26.0,26.0,30.22,WSW,243,0.0,0.0,100,0.00,CLR,,0.00,WeatherDisplay:10.37,2013-11-08 11:02:00,
2013-11-08 05:07:00,26.0,26.0,30.23,WSW,243,0.0,0.0,100,0.00,CLR,,0.00,WeatherDisplay:10.37,2013-11-08 11:07:00,
2013-11-08 05:12:00,26.4,26.4,30.23,WSW,243,0.0,0.0,100,0.00,CLR,,0.00,WeatherDisplay:10.37,2013-11-08 11:12:00,
2013-11-08 05:17:00,26.6,26.6,30.23,WSW,243,0.0,0.0,100,0.00,CLR,,0.00,WeatherDisplay:10.37,2013-11-08 11:17:00,
2013-11-08 05:22:00,26.7,26.7,30.23,WSW,243,0.0,0.0,100,0.00,CLR,,0.00,WeatherDisplay:10.37,2013-11-08 11:22:00,
2013-11-08 05:27:00,26.6,26.6,30.23,WSW,243,0.0,0.0,100,0.00,CLR,,0.00,WeatherDisplay:10.37,2013-11-08 11:27:00,
2013-11-08 05:32:00,26.3,26.3,30.23,WSW,243,0.0,0.0,100,0.00,CLR,,0.00,WeatherDisplay:10.37,2013-11-08 11:32:00,
2013-11-08 05:37:00,25.7,25.7,30.22,WSW,243,0.0,0.0,100,0.00,CLR,,0.00,WeatherDisplay:10.37,2013-11-08 11:37:00,
2013-11-08 05:42:00,25.6,25.6,30.22,WSW,243,0.0,0.0,100,0.00,CLR,,0.00,WeatherDisplay:10.37,2013-11-08 11:42:00,
2013-11-08 05:47:00,25.6,25.6,30.22,WSW,243,0.0,0.0,100,0.00,CLR,,0.00,WeatherDisplay:10.37,2013-11-08 11:47:00,
2013-11-08 05:52:00,25.4,25.4,30.22,WSW,243,0.0,0.0,100,0.00,CLR,,0.00,WeatherDisplay:10.37,2013-11-08 11:52:00,
2013-11-08 05:57:00,24.8,24.8,30.22,WSW,243,0.0,0.0,100,0.00,CLR,,0.00,WeatherDisplay:10.37,2013-11-08 11:57:00,
2013-11-08 06:02:00,24.8,24.8,30.22,SW,235,1.0,3.5,100,0.00,CLR,,0.00,WeatherDisplay:10.37,2013-11-08 12:02:00,
2013-11-08 06:07:00,25.6,25.6,30.22,West,281,2.6,4.6,100,0.00,CLR,,0.00,WeatherDisplay:10.37,2013-11-08 12:07:00,
2013-11-08 06:12:00,25.9,25.9,30.23,WSW,237,1.6,3.5,100,0.00,CLR,,0.00,WeatherDisplay:10.37,2013-11-08 12:12:00,
2013-11-08 06:17:00,26.0,26.0,30.23,West,268,0.0,0.0,100,0.00,CLR,,0.00,WeatherDisplay:10.37,2013-11-08 12:17:00,
2013-11-08 06:22:00,26.2,26.2,30.23,SW,232,2.4,4.1,100,0.00,CLR,,0.00,WeatherDisplay:10.37,2013-11-08 12:22:00,
2013-11-08 06:27:00,26.0,26.0,30.23,WSW,254,0.0,0.0,100,0.00,CLR,,0.00,WeatherDisplay:10.37,2013-11-08 12:27:00,
2013-11-08 06:32:00,26.1,26.1,30.23,WSW,254,0.0,0.0,100,0.00,CLR,,0.00,WeatherDisplay:10.37,2013-11-08 12:32:00,
2013-11-08 06:37:00,26.2,26.2,30.24,WSW,254,0.0,0.0,100,0.00,CLR,,0.00,WeatherDisplay:10.37,2013-11-08 12:37:00,
2013-11-08 06:42:00,26.3,26.3,30.24,SW,220,3.0,4.6,100,0.00,CLR,,0.00,WeatherDisplay:10.37,2013-11-08 12:42:00,
2013-11-08 06:47:00,26.5,26.5,30.23,WSW,240,0.0,0.0,100,0.00,CLR,,0.00,WeatherDisplay:10.37,2013-11-08 12:47:00,
2013-11-08 06:52:00,26.4,26.4,30.24,SW,235,0.2,1.2,100,0.00,CLR,,0.00,WeatherDisplay:10.37,2013-11-08 12:52:00,
2013-11-08 06:57:00,26.5,26.5,30.24,SW,216,1.4,2.3,100,0.00,CLR,,0.00,WeatherDisplay:10.37,2013-11-08 12:57:00,
2013-11-08 07:02:00,26.6,26.6,30.23,SW,216,0.0,0.0,100,0.00,CLR,,0.00,WeatherDisplay:10.37,2013-11-08 13:02:00,
2013-11-08 07:07:00,26.6,26.6,30.24,SW,216,0.0,0.0,100,0.00,CLR,,0.00,WeatherDisplay:10.37,2013-11-08 13:07:00,
2013-11-08 07:12:00,26.5,26.5,30.24,SW,216,0.0,0.0,100,0.00,CLR,,0.00,WeatherDisplay:10.37,2013-11-08 13:12:00,
2013-11-08 07:17:00,26.5,26.5,30.24,SW,216,0.0,0.0,100,0.00,CLR,,0.00,WeatherDisplay:10.37,2013-11-08 13:17:00,
2013-11-08 07:22:00,26.5,26.5,30.24,SW,216,0.0,0.0,100,0.00,CLR,,0.00,WeatherDisplay:10.37,2013-11-08 13:22:00,
2013-11-08 07:27:00,26.8,26.8,30.25,South,187,0.2,3.5,100,0.00,CLR,,0.00,WeatherDisplay:10.37,2013-11-08 13:27:00,
2013-11-08 07:32:00,26.8,26.8,30.25,South,181,2.9,3.5,100,0.00,CLR,,0.00,WeatherDisplay:10.37,2013-11-08 13:32:00,
2013-11-08 07:37:00,27.0,27.0,30.24,South,170,0.2,3.5,100,0.00,CLR,,0.00,WeatherDisplay:10.37,2013-11-08 13:37:00,
2013-11-08 07:42:00,27.1,27.1,30.25,SSW,213,0.0,0.0,100,0.00,CLR,,0.00,WeatherDisplay:10.37,2013-11-08 13:42:00,
2013-11-08 07:47:00,27.4,27.4,30.25,SW,226,3.5,3.5,100,0.00,CLR,,0.00,WeatherDisplay:10.37,2013-11-08 13:47:00,
2013-11-08 07:52:00,27.6,27.6,30.25,SW,226,2.7,4.6,100,0.00,CLR,,0.00,WeatherDisplay:10.37,2013-11-08 13:52:00,
2013-11-08 07:57:00,27.9,27.9,30.25,SSW,205,0.9,4.2,100,0.00,CLR,,0.00,WeatherDisplay:10.37,2013-11-08 13:57:00,
2013-11-08 08:02:00,28.5,28.5,30.25,SW,232,4.0,6.9,100,0.00,CLR,,0.00,WeatherDisplay:10.37,2013-11-08 14:02:00,
2013-11-08 08:07:00,28.8,28.8,30.25,SSW,201,4.4,5.0,100,0.00,CLR,,0.00,WeatherDisplay:10.37,2013-11-08 14:07:00,
2013-11-08 08:12:00,29.1,29.1,30.25,SW,236,5.3,6.9,100,0.00,CLR,,0.00,WeatherDisplay:10.37,2013-11-08 14:12:00,
2013-11-08 08:17:00,29.3,29.3,30.25,SSW,195,2.7,8.1,100,0.00,CLR,,0.00,WeatherDisplay:10.37,2013-11-08 14:17:00,
2013-11-08 08:22:00,29.7,29.7,30.25,SSW,196,4.2,5.8,100,0.00,CLR,,0.00,WeatherDisplay:10.37,2013-11-08 14:22:00,
2013-11-08 08:27:00,30.5,30.5,30.25,SSW,213,2.5,3.5,100,0.00,CLR,,0.00,WeatherDisplay:10.37,2013-11-08 14:27:00,
2013-11-08 08:32:00,30.8,30.8,30.25,NW,321,3.1,4.6,100,0.00,CLR,,0.00,WeatherDisplay:10.37,2013-11-08 14:32:00,
2013-11-08 08:37:00,31.2,31.2,30.24,WSW,239,2.0,3.5,100,0.00,CLR,,0.00,WeatherDisplay:10.37,2013-11-08 14:37:00,
2013-11-08 08:42:00,31.5,31.5,30.24,SW,223,4.2,4.2,100,0.00,CLR,,0.00,WeatherDisplay:10.37,2013-11-08 14:42:00,
2013-11-08 08:47:00,32.1,32.1,30.24,SW,233,2.7,4.6,100,0.00,CLR,,0.00,WeatherDisplay:10.37,2013-11-08 14:47:00,
2013-11-08 08:52:00,32.9,32.9,30.24,SW,226,3.7,4.6,100,0.00,CLR,,0.00,WeatherDisplay:10.37,2013-11-08 14:52:00,
2013-11-08 08:57:00,33.6,33.6,30.24,SW,226,1.4,4.6,100,0.00,CLR,,0.00,WeatherDisplay:10.37,2013-11-08 14:57:00,
2013-11-08 09:02:00,33.9,33.9,30.24,South,174,2.9,2.9,100,0.00,CLR,,0.00,WeatherDisplay:10.37,2013-11-08 15:02:00,
2013-11-08 09:07:00,34.6,34.6,30.23,ESE,113,1.3,2.3,100,0.00,CLR,,0.00,WeatherDisplay:10.37,2013-11-08 15:07:00,
2013-11-08 09:12:00,34.9,34.4,30.23,South,170,2.4,3.5,98,0.00,CLR,,0.00,WeatherDisplay:10.37,2013-11-08 15:12:00,
2013-11-08 09:17:00,34.8,33.5,30.23,SSE,167,4.1,5.9,95,0.00,CLR,,0.00,WeatherDisplay:10.37,2013-11-08 15:17:00,
2013-11-08 09:22:00,34.6,33.1,30.23,SW,232,3.6,8.1,94,0.00,CLR,,0.00,WeatherDisplay:10.37,2013-11-08 15:22:00,
2013-11-08 09:27:00,34.9,33.3,30.22,SSE,147,2.4,5.3,94,0.00,CLR,,0.00,WeatherDisplay:10.37,2013-11-08 15:27:00,
2013-11-08 09:32:00,35.3,33.5,30.22,SSW,206,3.9,7.0,93,0.00,CLR,,0.00,WeatherDisplay:10.37,2013-11-08 15:32:00,
2013-11-08 09:37:00,35.5,33.1,30.22,SSW,208,5.1,8.1,91,0.00,CLR,,0.00,WeatherDisplay:10.37,2013-11-08 15:37:00,
2013-11-08 09:42:00,36.1,33.5,30.22,SW,223,2.6,5.8,90,0.00,CLR,,0.00,WeatherDisplay:10.37,2013-11-08 15:42:00,
2013-11-08 09:47:00,36.7,33.2,30.22,SSE,168,4.1,8.1,87,0.00,CLR,,0.00,WeatherDisplay:10.37,2013-11-08 15:47:00,
2013-11-08 09:52:00,36.8,33.0,30.22,SSW,199,3.9,7.3,86,0.00,CLR,,0.00,WeatherDisplay:10.37,2013-11-08 15:52:00,
2013-11-08 09:57:00,36.9,32.8,30.22,WSW,239,3.2,8.1,85,0.00,CLR,,0.00,WeatherDisplay:10.37,2013-11-08 15:57:00,
2013-11-08 10:04:00,37.5,33.7,30.21,SSE,147,1.9,3.5,86,0.00,CLR,,0.00,WeatherDisplay:10.37,2013-11-08 16:04:00,
2013-11-08 10:09:00,37.7,33.3,30.22,SW,235,6.1,8.1,84,0.00,CLR,,0.00,WeatherDisplay:10.37,2013-11-08 16:09:00,
2013-11-08 10:14:00,37.6,32.3,30.22,WNW,290,4.4,5.8,81,0.00,CLR,,0.00,WeatherDisplay:10.37,2013-11-08 16:14:00,
2013-11-08 10:19:00,37.7,32.1,30.22,SSW,213,5.5,8.1,80,0.00,CLR,,0.00,WeatherDisplay:10.37,2013-11-08 16:19:00,
2013-11-08 10:24:00,38.0,32.4,30.22,WSW,244,3.4,4.6,80,0.00,CLR,,0.00,WeatherDisplay:10.37,2013-11-08 16:24:00,
2013-11-08 10:29:00,38.4,32.1,30.21,South,189,4.5,8.1,78,0.00,CLR,,0.00,WeatherDisplay:10.37,2013-11-08 16:29:00,
2013-11-08 10:34:00,38.4,31.5,30.21,SSW,213,5.4,6.2,76,0.00,CLR,,0.00,WeatherDisplay:10.37,2013-11-08 16:34:00,
2013-11-08 10:39:00,38.5,31.9,30.20,ESE,119,2.7,9.2,77,0.00,CLR,,0.00,WeatherDisplay:10.37,2013-11-08 16:39:00,
2013-11-08 10:44:00,39.2,32.3,30.20,West,264,2.7,4.7,76,0.00,CLR,,0.00,WeatherDisplay:10.37,2013-11-08 16:44:00,
2013-11-08 10:49:00,39.2,31.6,30.20,SSW,213,5.3,8.1,74,0.00,CLR,,0.00,WeatherDisplay:10.37,2013-11-08 16:49:00,
2013-11-08 10:54:00,39.2,31.3,30.20,SW,216,6.3,9.0,73,0.00,CLR,,0.00,WeatherDisplay:10.37,2013-11-08 16:54:00,
2013-11-08 10:59:00,39.2,30.9,30.20,SSE,161,5.9,8.1,72,0.00,CLR,,0.00,WeatherDisplay:10.37,2013-11-08 16:59:00,
2013-11-08 11:04:00,39.5,31.2,30.19,SE,132,5.1,6.9,72,0.00,CLR,,0.00,WeatherDisplay:10.37,2013-11-08 17:04:00,
2013-11-08 11:09:00,39.6,31.3,30.19,SSE,161,4.8,6.9,72,0.00,CLR,,0.00,WeatherDisplay:10.37,2013-11-08 17:09:00,
2013-11-08 11:14:00,39.9,31.6,30.19,South,191,5.3,11.5,72,0.00,CLR,,0.00,WeatherDisplay:10.37,2013-11-08 17:14:00,
2013-11-08 11:19:00,40.0,31.7,30.19,SW,226,5.2,9.6,72,0.00,CLR,,0.00,WeatherDisplay:10.37,2013-11-08 17:19:00,
2013-11-08 11:24:00,40.5,32.2,30.19,South,184,5.0,10.4,72,0.00,CLR,,0.00,WeatherDisplay:10.37,2013-11-08 17:24:00,
2013-11-08 11:29:00,40.5,32.2,30.18,SSW,208,7.5,10.4,72,0.00,CLR,,0.00,WeatherDisplay:10.37,2013-11-08 17:29:00,
2013-11-08 11:34:00,40.6,31.9,30.18,South,182,7.3,10.4,71,0.00,CLR,,0.00,WeatherDisplay:10.37,2013-11-08 17:34:00,
2013-11-08 11:39:00,40.8,32.1,30.17,SW,229,5.9,8.1,71,0.00,CLR,,0.00,WeatherDisplay:10.37,2013-11-08 17:39:00,
2013-11-08 11:44:00,41.1,32.1,30.17,SW,225,7.3,11.6,70,0.00,CLR,,0.00,WeatherDisplay:10.37,2013-11-08 17:44:00,
2013-11-08 11:49:00,41.2,32.2,30.17,SSW,194,6.3,8.1,70,0.00,CLR,,0.00,WeatherDisplay:10.37,2013-11-08 17:49:00,
2013-11-08 11:54:00,41.5,32.8,30.17,SSE,161,4.2,4.6,71,0.00,CLR,,0.00,WeatherDisplay:10.37,2013-11-08 17:54:00,
2013-11-08 11:59:00,41.3,32.2,30.16,SW,222,6.5,10.4,70,0.00,CLR,,0.00,WeatherDisplay:10.37,2013-11-08 17:59:00,
2013-11-08 12:04:00,41.3,32.2,30.16,West,274,5.6,8.1,70,0.00,CLR,,0.00,WeatherDisplay:10.37,2013-11-08 18:04:00,
2013-11-08 12:09:00,41.3,32.6,30.16,ESE,106,2.6,5.8,71,0.00,CLR,,0.00,WeatherDisplay:10.37,2013-11-08 18:09:00,
2013-11-08 12:14:00,41.7,32.6,30.16,SSW,213,7.5,8.1,70,0.00,CLR,,0.00,WeatherDisplay:10.37,2013-11-08 18:14:00,
2013-11-08 12:19:00,41.8,32.7,30.16,SSW,202,2.3,5.8,70,0.00,CLR,,0.00,WeatherDisplay:10.37,2013-11-08 18:19:00,
2013-11-08 12:24:00,41.9,32.5,30.15,South,184,6.7,10.4,69,0.00,CLR,,0.00,WeatherDisplay:10.37,2013-11-08 18:24:00,
2013-11-08 12:29:00,41.7,32.3,30.15,SSW,199,5.0,10.4,69,0.00,CLR,,0.00,WeatherDisplay:10.37,2013-11-08 18:29:00,
2013-11-08 12:34:00,42.0,32.9,30.14,WSW,240,2.3,5.8,70,0.00,CLR,,0.00,WeatherDisplay:10.37,2013-11-08 18:34:00,
2013-11-08 12:39:00,42.4,32.2,30.14,SSE,158,5.2,9.2,67,0.00,CLR,,0.00,WeatherDisplay:10.37,2013-11-08 18:39:00,
2013-11-08 12:45:00,42.7,32.5,30.14,SSW,194,5.0,9.0,67,0.00,CLR,CLR,0.00,WeatherDisplay:10.37,2013-11-08 18:45:00,
2013-11-08 12:50:00,42.4,32.2,30.14,SSW,204,3.0,5.8,67,0.00,CLR,,0.00,WeatherDisplay:10.37,2013-11-08 18:50:00,
2013-11-08 12:55:00,42.5,32.3,30.13,South,178,3.8,5.8,67,0.00,CLR,,0.00,WeatherDisplay:10.37,2013-11-08 18:55:00,
2013-11-08 13:00:00,42.5,32.3,30.13,WNW,292,4.1,8.1,67,0.00,CLR,,0.00,WeatherDisplay:10.37,2013-11-08 19:00:00,
2013-11-08 13:05:00,42.8,32.6,30.12,SSE,161,2.6,3.5,67,0.00,CLR,,0.00,WeatherDisplay:10.37,2013-11-08 19:05:00,
2013-11-08 13:27:00,43.2,33.0,30.12,South,181,3.7,6.9,67,0.00,CLR,,0.00,WeatherDisplay:10.37,2013-11-08 19:27:00,
2013-11-08 13:32:00,43.1,32.9,30.11,SSW,209,2.0,4.0,67,0.00,CLR,,0.00,WeatherDisplay:10.37,2013-11-08 19:32:00,
2013-11-08 13:37:00,43.3,33.1,30.11,SSE,167,4.1,9.2,67,0.00,CLR,,0.00,WeatherDisplay:10.37,2013-11-08 19:37:00,
2013-11-08 13:42:00,43.5,32.9,30.11,South,188,6.3,9.2,66,0.00,CLR,,0.00,WeatherDisplay:10.37,2013-11-08 19:42:00,
2013-11-08 13:47:00,43.5,33.3,30.11,SSW,195,3.9,6.9,67,0.00,CLR,,0.00,WeatherDisplay:10.37,2013-11-08 19:47:00,
2013-11-08 13:52:00,43.5,32.9,30.10,South,172,3.6,5.8,66,0.00,CLR,,0.00,WeatherDisplay:10.37,2013-11-08 19:52:00,
2013-11-08 13:58:00,43.5,32.5,30.10,SE,133,5.3,8.1,65,0.00,CLR,,0.00,WeatherDisplay:10.37,2013-11-08 19:58:00,
2013-11-08 14:03:00,43.4,32.0,30.09,SSE,148,4.3,5.8,64,0.00,OVC,,0.00,WeatherDisplay:10.37,2013-11-08 20:03:00,
2013-11-08 14:08:00,43.2,30.6,30.09,ESE,120,5.3,10.4,61,0.00,OVC,,0.00,WeatherDisplay:10.37,2013-11-08 20:08:00,
2013-11-08 14:13:00,43.2,31.4,30.09,SSW,199,2.6,8.1,63,0.00,OVC,,0.00,WeatherDisplay:10.37,2013-11-08 20:13:00,
2013-11-08 14:18:00,43.2,31.4,30.09,SSE,148,6.0,11.5,63,0.00,OVC,,0.00,WeatherDisplay:10.37,2013-11-08 20:18:00,
2013-11-08 14:23:00,43.2,31.4,30.08,SE,129,4.3,11.4,63,0.00,OVC,,0.00,WeatherDisplay:10.37,2013-11-08 20:23:00,
2013-11-08 14:28:00,43.0,30.9,30.07,SE,143,5.3,8.1,62,0.00,OVC,,0.00,WeatherDisplay:10.37,2013-11-08 20:28:00,
2013-11-08 14:33:00,43.0,31.6,30.07,South,189,2.7,6.9,64,0.00,OVC,,0.00,WeatherDisplay:10.37,2013-11-08 20:33:00,
2013-11-08 14:38:00,42.8,31.1,30.06,SE,134,4.8,8.1,63,0.00,OVC,,0.00,WeatherDisplay:10.37,2013-11-08 20:38:00,
2013-11-08 14:43:00,42.7,31.0,30.06,SE,143,3.3,5.8,63,0.00,OVC,,0.00,WeatherDisplay:10.37,2013-11-08 20:43:00,
2013-11-08 14:48:00,43.1,31.0,30.06,SSE,154,5.8,10.4,62,0.00,OVC,,0.00,WeatherDisplay:10.37,2013-11-08 20:48:00,
2013-11-08 14:53:00,43.5,30.9,30.06,SE,126,5.5,9.2,61,0.00,OVC,,0.00,WeatherDisplay:10.37,2013-11-08 20:53:00,
2013-11-08 14:58:00,43.8,31.6,30.06,SSW,199,2.6,4.8,62,0.00,OVC,,0.00,WeatherDisplay:10.37,2013-11-08 20:58:00,
2013-11-08 15:03:00,43.9,31.7,30.05,ESE,120,3.9,6.9,62,0.00,OVC,,0.00,WeatherDisplay:10.37,2013-11-08 21:03:00,
2013-11-08 15:08:00,43.3,31.1,30.05,SSW,204,6.7,12.7,62,0.00,OVC,,0.00,WeatherDisplay:10.37,2013-11-08 21:08:00,
2013-11-08 15:13:00,43.0,30.9,30.04,SSE,156,4.2,8.1,62,0.00,OVC,,0.00,WeatherDisplay:10.37,2013-11-08 21:13:00,
2013-11-08 15:18:00,43.1,31.4,30.03,SW,228,5.3,9.2,63,0.00,OVC,,0.00,WeatherDisplay:10.37,2013-11-08 21:18:00,
2013-11-08 15:23:00,42.5,30.8,30.03,SE,133,6.4,11.5,63,0.00,OVC,,0.00,WeatherDisplay:10.37,2013-11-08 21:23:00,
2013-11-08 15:28:00,42.5,30.8,30.03,SE,132,5.9,8.1,63,0.00,OVC,,0.00,WeatherDisplay:10.37,2013-11-08 21:28:00,
2013-11-08 15:33:00,42.3,30.6,30.04,SSE,153,3.5,9.2,63,0.00,OVC,,0.00,WeatherDisplay:10.37,2013-11-08 21:33:00,
2013-11-08 15:38:00,42.4,30.7,30.03,SSW,206,6.7,10.4,63,0.00,OVC,,0.00,WeatherDisplay:10.37,2013-11-08 21:38:00,
2013-11-08 15:43:00,42.3,30.6,30.03,East,81,4.6,9.2,63,0.00,OVC,,0.00,WeatherDisplay:10.37,2013-11-08 21:43:00,
2013-11-08 15:48:00,42.5,30.8,30.02,SSE,156,3.7,8.1,63,0.00,OVC,,0.00,WeatherDisplay:10.37,2013-11-08 21:48:00,
2013-11-08 15:53:00,42.4,30.3,30.02,ESE,123,5.0,10.4,62,0.00,OVC,,0.00,WeatherDisplay:10.37,2013-11-08 21:53:00,
2013-11-08 15:58:00,42.8,30.7,30.02,ESE,122,3.4,5.8,62,0.00,OVC,,0.00,WeatherDisplay:10.37,2013-11-08 21:58:00,
2013-11-08 16:03:00,42.8,30.7,30.02,ESE,120,4.6,6.9,62,0.00,SCT,,0.00,WeatherDisplay:10.37,2013-11-08 22:03:00,
2013-11-08 16:08:00,42.6,30.5,30.01,SE,146,4.3,9.2,62,0.00,SCT,,0.00,WeatherDisplay:10.37,2013-11-08 22:08:00,
2013-11-08 16:13:00,42.5,30.8,30.01,SE,146,2.9,4.6,63,0.00,SCT,,0.00,WeatherDisplay:10.37,2013-11-08 22:13:00,
2013-11-08 16:18:00,42.4,31.1,30.01,SSE,151,1.9,7.5,64,0.00,SCT,,0.00,WeatherDisplay:10.37,2013-11-08 22:18:00,
2013-11-08 16:23:00,42.1,30.8,30.01,SSE,156,1.5,6.9,64,0.00,SCT,,0.00,WeatherDisplay:10.37,2013-11-08 22:23:00,
2013-11-08 16:28:00,42.1,30.8,30.00,SSE,163,4.1,8.1,64,0.00,SCT,,0.00,WeatherDisplay:10.37,2013-11-08 22:28:00,
2013-11-08 16:33:00,42.0,31.1,30.00,East,96,2.7,6.9,65,0.00,SCT,,0.00,WeatherDisplay:10.37,2013-11-08 22:33:00,
2013-11-08 16:38:00,41.9,31.0,29.99,SE,126,3.5,5.8,65,0.00,SCT,,0.00,WeatherDisplay:10.37,2013-11-08 22:38:00,
2013-11-08 16:43:00,42.3,31.4,29.99,ESE,115,2.6,5.8,65,0.00,SCT,,0.00,WeatherDisplay:10.37,2013-11-08 22:43:00,
2013-11-08 16:48:00,42.1,31.6,29.99,South,170,2.6,5.7,66,0.00,SCT,,0.00,WeatherDisplay:10.37,2013-11-08 22:48:00,
2013-11-08 16:53:00,42.0,31.5,29.99,SE,130,1.6,3.5,66,0.00,SCT,,0.00,WeatherDisplay:10.37,2013-11-08 22:53:00,
2013-11-08 16:58:00,42.0,31.5,29.99,SE,129,2.1,5.8,66,0.00,SCT,,0.00,WeatherDisplay:10.37,2013-11-08 22:58:00,
2013-11-08 17:03:00,41.9,31.4,29.98,SE,140,2.4,6.9,66,0.00,FEW,,0.00,WeatherDisplay:10.37,2013-11-08 23:03:00,
2013-11-08 17:08:00,42.0,31.5,29.98,SSE,148,2.0,3.5,66,0.00,FEW,,0.00,WeatherDisplay:10.37,2013-11-08 23:08:00,
2013-11-08 17:13:00,42.3,31.7,29.98,SE,137,3.7,8.1,66,0.00,FEW,,0.00,WeatherDisplay:10.37,2013-11-08 23:13:00,
2013-11-08 17:18:00,42.3,31.4,29.98,SE,134,5.0,9.2,65,0.00,FEW,,0.00,WeatherDisplay:10.37,2013-11-08 23:18:00,
2013-11-08 17:23:00,42.3,31.4,29.98,ESE,122,3.6,9.9,65,0.00,FEW,,0.00,WeatherDisplay:10.37,2013-11-08 23:23:00,
2013-11-08 17:28:00,42.4,31.5,29.97,SE,136,4.5,11.5,65,0.00,FEW,,0.00,WeatherDisplay:10.37,2013-11-08 23:28:00,
2013-11-08 17:33:00,42.5,31.2,29.97,SE,124,5.1,10.4,64,0.00,FEW,,0.00,WeatherDisplay:10.37,2013-11-08 23:33:00,
2013-11-08 17:38:00,42.6,31.3,29.97,SE,124,6.0,15.0,64,0.00,FEW,,0.00,WeatherDisplay:10.37,2013-11-08 23:38:00,
2013-11-08 17:43:00,42.7,31.4,29.98,East,99,4.8,10.4,64,0.00,FEW,,0.00,WeatherDisplay:10.37,2013-11-08 23:43:00,
2013-11-08 17:48:00,42.9,31.6,29.98,South,178,3.3,9.2,64,0.00,FEW,,0.00,WeatherDisplay:10.37,2013-11-08 23:48:00,
2013-11-08 17:53:00,43.1,31.7,29.98,South,170,4.3,6.9,64,0.00,FEW,,0.00,WeatherDisplay:10.37,2013-11-08 23:53:00,
2013-11-08 17:58:00,42.8,31.5,29.98,SW,218,5.8,11.5,64,0.00,FEW,,0.00,WeatherDisplay:10.37,2013-11-08 23:58:00,
2013-11-08 18:03:00,42.9,31.2,29.98,SW,219,7.0,15.0,63,0.00,CLR,,0.00,WeatherDisplay:10.37,2013-11-09 00:03:00,
2013-11-08 18:08:00,43.1,31.7,29.98,South,187,3.0,8.1,64,0.00,CLR,,0.00,WeatherDisplay:10.37,2013-11-09 00:08:00,
2013-11-08 18:13:00,43.0,31.6,29.98,SSW,202,5.4,9.2,64,0.00,CLR,,0.00,WeatherDisplay:10.37,2013-11-09 00:13:00,
2013-11-08 18:18:00,42.8,31.5,29.97,SE,143,5.2,11.5,64,0.00,CLR,,0.00,WeatherDisplay:10.37,2013-11-09 00:18:00,
2013-11-08 18:23:00,42.6,31.3,29.96,South,171,5.2,10.4,64,0.00,CLR,,0.00,WeatherDisplay:10.37,2013-11-09 00:23:00,
2013-11-08 18:28:00,42.8,31.5,29.96,SSW,205,5.7,12.7,64,0.00,CLR,,0.00,WeatherDisplay:10.37,2013-11-09 00:28:00,
2013-11-08 18:33:00,42.7,31.4,29.97,SSW,204,3.4,6.9,64,0.00,CLR,,0.00,WeatherDisplay:10.37,2013-11-09 00:33:00,
2013-11-08 18:38:00,42.7,31.4,29.97,South,182,4.2,11.5,64,0.00,CLR,,0.00,WeatherDisplay:10.37,2013-11-09 00:38:00,
2013-11-08 18:43:00,42.7,31.4,29.98,South,185,4.6,9.2,64,0.00,CLR,,0.00,WeatherDisplay:10.37,2013-11-09 00:43:00,
2013-11-08 18:48:00,42.7,31.4,29.98,SE,140,6.0,9.2,64,0.00,CLR,,0.00,WeatherDisplay:10.37,2013-11-09 00:48:00,
2013-11-08 18:53:00,42.7,31.4,29.97,SW,230,5.9,13.8,64,0.00,CLR,,0.00,WeatherDisplay:10.37,2013-11-09 00:53:00,
2013-11-08 18:58:00,42.5,31.2,29.98,SSE,156,7.0,10.4,64,0.00,CLR,,0.00,WeatherDisplay:10.37,2013-11-09 00:58:00,
2013-11-08 19:03:00,42.6,31.7,29.97,SSE,157,7.4,13.8,65,0.00,CLR,,0.00,WeatherDisplay:10.37,2013-11-09 01:03:00,
2013-11-08 19:08:00,42.5,31.6,29.97,SW,219,5.3,8.1,65,0.00,CLR,,0.00,WeatherDisplay:10.37,2013-11-09 01:08:00,
2013-11-08 19:13:00,42.5,31.6,29.96,South,170,4.7,11.5,65,0.00,CLR,,0.00,WeatherDisplay:10.37,2013-11-09 01:13:00,
2013-11-08 19:18:00,42.5,31.9,29.96,SSE,156,5.5,13.8,66,0.00,CLR,,0.00,WeatherDisplay:10.37,2013-11-09 01:18:00,
2013-11-08 19:23:00,42.3,31.4,29.96,SSE,167,9.0,17.3,65,0.00,CLR,,0.00,WeatherDisplay:10.37,2013-11-09 01:23:00,
2013-11-08 19:28:00,42.2,31.6,29.95,SSW,198,5.9,12.9,66,0.00,CLR,,0.00,WeatherDisplay:10.37,2013-11-09 01:28:00,
2013-11-08 19:33:00,42.1,31.6,29.95,SE,144,5.4,9.2,66,0.00,CLR,,0.00,WeatherDisplay:10.37,2013-11-09 01:33:00,
2013-11-08 19:38:00,42.1,31.6,29.95,SSW,204,6.1,9.2,66,0.00,CLR,,0.00,WeatherDisplay:10.37,2013-11-09 01:38:00,
2013-11-08 19:43:00,42.0,31.8,29.94,SW,222,5.4,9.2,67,0.00,CLR,,0.00,WeatherDisplay:10.37,2013-11-09 01:43:00,
2013-11-08 19:48:00,41.8,31.6,29.94,South,170,5.1,11.5,67,0.00,CLR,,0.00,WeatherDisplay:10.37,2013-11-09 01:48:00,
2013-11-08 19:53:00,41.8,32.0,29.94,South,177,7.2,17.3,68,0.00,CLR,,0.00,WeatherDisplay:10.37,2013-11-09 01:53:00,
2013-11-08 19:58:00,41.9,32.1,29.94,SSE,148,4.0,9.2,68,0.00,CLR,,0.00,WeatherDisplay:10.37,2013-11-09 01:58:00,
2013-11-08 20:03:00,41.6,32.2,29.93,SW,220,6.2,9.2,69,0.00,SCT,,0.00,WeatherDisplay:10.37,2013-11-09 02:03:00,
2013-11-08 20:08:00,41.6,32.2,29.93,SSE,151,4.0,11.9,69,0.00,SCT,,0.00,WeatherDisplay:10.37,2013-11-09 02:08:00,
2013-11-08 20:13:00,41.6,32.5,29.92,SSE,148,5.6,12.7,70,0.00,SCT,,0.00,WeatherDisplay:10.37,2013-11-09 02:13:00,
2013-11-08 20:18:00,41.5,32.4,29.92,SSE,168,6.2,8.1,70,0.00,SCT,,0.00,WeatherDisplay:10.37,2013-11-09 02:18:00,
2013-11-08 20:23:00,41.6,32.5,29.92,South,174,8.1,9.3,70,0.00,SCT,,0.00,WeatherDisplay:10.37,2013-11-09 02:23:00,
2013-11-08 20:28:00,41.5,32.4,29.92,South,172,3.8,11.5,70,0.00,SCT,,0.00,WeatherDisplay:10.37,2013-11-09 02:28:00,
2013-11-08 20:33:00,41.4,32.7,29.91,SW,225,3.8,15.0,71,0.00,SCT,,0.00,WeatherDisplay:10.37,2013-11-09 02:33:00,
2013-11-08 20:38:00,41.6,32.9,29.91,SW,225,4.4,8.1,71,0.00,SCT,,0.00,WeatherDisplay:10.37,2013-11-09 02:38:00,
2013-11-08 20:43:00,41.5,32.8,29.91,South,181,6.1,9.2,71,0.00,SCT,,0.00,WeatherDisplay:10.37,2013-11-09 02:43:00,
2013-11-08 20:48:00,41.3,32.6,29.91,SE,146,6.6,9.2,71,0.00,SCT,,0.00,WeatherDisplay:10.37,2013-11-09 02:48:00,
2013-11-08 20:53:00,41.3,32.6,29.91,WSW,239,4.1,12.7,71,0.00,SCT,,0.00,WeatherDisplay:10.37,2013-11-09 02:53:00,
2013-11-08 20:58:00,41.6,32.9,29.91,SE,146,5.5,8.1,71,0.00,SCT,,0.00,WeatherDisplay:10.37,2013-11-09 02:58:00,
2013-11-08 21:03:00,41.6,32.9,29.90,SE,139,6.8,8.1,71,0.00,FEW,,0.00,WeatherDisplay:10.37,2013-11-09 03:03:00,
2013-11-08 21:08:00,41.7,33.0,29.89,SSE,151,5.0,9.2,71,0.00,FEW,,0.00,WeatherDisplay:10.37,2013-11-09 03:08:00,
2013-11-08 21:13:00,41.7,33.0,29.89,SSW,194,3.9,6.9,71,0.00,FEW,,0.00,WeatherDisplay:10.37,2013-11-09 03:13:00,
2013-11-08 21:18:00,41.9,32.8,29.89,ESE,109,4.7,9.2,70,0.00,FEW,,0.00,WeatherDisplay:10.37,2013-11-09 03:18:00,
2013-11-08 21:23:00,42.1,33.0,29.88,SE,141,7.4,12.1,70,0.00,FEW,,0.00,WeatherDisplay:10.37,2013-11-09 03:23:00,
2013-11-08 21:28:00,42.4,33.3,29.88,South,175,8.2,13.8,70,0.00,FEW,,0.00,WeatherDisplay:10.37,2013-11-09 03:28:00,
2013-11-08 21:33:00,42.3,33.2,29.87,South,172,6.9,10.4,70,0.00,FEW,,0.00,WeatherDisplay:10.37,2013-11-09 03:33:00,
2013-11-08 21:38:00,42.6,33.5,29.87,South,187,3.6,9.2,70,0.00,FEW,,0.00,WeatherDisplay:10.37,2013-11-09 03:38:00,
2013-11-08 21:43:00,42.8,33.3,29.86,South,189,6.5,13.8,69,0.00,FEW,,0.00,WeatherDisplay:10.37,2013-11-09 03:43:00,
2013-11-08 21:48:00,42.7,33.2,29.85,ESE,122,8.2,16.1,69,0.00,FEW,,0.00,WeatherDisplay:10.37,2013-11-09 03:48:00,
2013-11-08 21:53:00,43.2,33.7,29.85,SSE,156,6.2,9.2,69,0.00,FEW,,0.00,WeatherDisplay:10.37,2013-11-09 03:53:00,
2013-11-08 21:58:00,43.2,33.7,29.85,South,177,6.3,11.5,69,0.00,FEW,,0.00,WeatherDisplay:10.37,2013-11-09 03:58:00,
2013-11-08 22:03:00,43.2,33.7,29.84,West,260,8.2,12.7,69,0.00,OVC,,0.00,WeatherDisplay:10.37,2013-11-09 04:03:00,
2013-11-08 22:08:00,43.3,33.8,29.83,South,175,8.6,12.7,69,0.00,OVC,,0.00,WeatherDisplay:10.37,2013-11-09 04:08:00,
2013-11-08 22:13:00,43.4,33.9,29.82,SSE,168,6.5,11.5,69,0.00,OVC,,0.00,WeatherDisplay:10.37,2013-11-09 04:13:00,
2013-11-08 22:18:00,43.5,34.0,29.82,SSW,192,10.5,21.9,69,0.00,OVC,,0.00,WeatherDisplay:10.37,2013-11-09 04:18:00,
2013-11-08 22:23:00,43.6,34.1,29.82,South,177,8.9,18.4,69,0.00,OVC,,0.00,WeatherDisplay:10.37,2013-11-09 04:23:00,
2013-11-08 22:52:00,44.6,34.3,29.80,South,185,12.7,13.4,67,0.00,OVC,,0.00,WeatherDisplay:10.37,2013-11-09 04:52:00,
2013-11-08 22:57:00,44.7,34.0,29.80,South,182,9.6,16.1,66,0.00,OVC,,0.00,WeatherDisplay:10.37,2013-11-09 04:57:00,
2013-11-08 23:01:00,44.7,34.0,29.79,South,180,7.2,15.0,66,0.00,OVC,,0.00,WeatherDisplay:10.37,2013-11-09 05:01:00,
2013-11-08 23:02:00,44.9,34.2,29.79,SSW,205,10.0,17.3,66,0.00,-RA,,0.00,WeatherDisplay:10.37,2013-11-09 05:02:00,
2013-11-08 23:07:00,44.8,34.1,29.78,SE,140,5.2,11.5,66,0.00,-RA,,0.00,WeatherDisplay:10.37,2013-11-09 05:07:00,
2013-11-08 23:12:00,44.8,34.1,29.78,South,180,7.0,10.4,66,0.00,-RA,,0.00,WeatherDisplay:10.37,2013-11-09 05:12:00,
2013-11-08 23:17:00,45.0,34.3,29.78,SSW,206,7.5,16.1,66,0.00,-RA,,0.00,WeatherDisplay:10.37,2013-11-09 05:17:00,
2013-11-08 23:22:00,45.3,34.2,29.78,South,177,4.2,9.2,65,0.00,-RA,,0.00,WeatherDisplay:10.37,2013-11-09 05:22:00,
2013-11-08 23:27:00,45.4,34.3,29.77,SSW,213,7.5,12.7,65,0.00,-RA,,0.00,WeatherDisplay:10.37,2013-11-09 05:27:00,
2013-11-08 23:32:00,45.7,34.6,29.76,SSW,202,5.7,9.2,65,0.00,-RA,,0.00,WeatherDisplay:10.37,2013-11-09 05:32:00,
2013-11-08 23:37:00,45.4,34.3,29.76,SW,228,7.8,13.8,65,0.00,-RA,,0.00,WeatherDisplay:10.37,2013-11-09 05:37:00,
2013-11-08 23:42:00,45.9,34.4,29.77,SW,223,7.3,11.5,64,0.00,-RA,,0.00,WeatherDisplay:10.37,2013-11-09 05:42:00,
2013-11-08 23:47:00,45.8,34.3,29.77,South,184,6.8,9.0,64,0.00,-RA,,0.00,WeatherDisplay:10.37,2013-11-09 05:47:00,
2013-11-08 23:52:00,46.2,34.7,29.77,SW,232,8.0,13.8,64,0.00,-RA,,0.00,WeatherDisplay:10.37,2013-11-09 05:52:00,
2013-11-08 23:57:00,46.3,34.4,29.77,WSW,254,7.7,15.0,63,0.00,-RA,,0.00,WeatherDisplay:10.37,2013-11-09 05:57:00,